sensor_id;sensor_type;location;lat;lon;timestamp;P1;durP1;ratioP1;P2;durP2;ratioP2
80637;SDS011;69991;51.760;19.528;2023-10-13T00:01:08;6.10;;;2.40;;
80637;SDS011;69991;51.760;19.528;2023-10-13T00:03:53;6.70;;;2.80;;
80637;SDS011;69991;51.760;19.528;2023-10-13T00:09:19;7.20;;;2.80;;
80637;SDS011;69991;51.760;19.528;2023-10-13T00:12:00;8.40;;;3.00;;
80637;SDS011;69991;51.760;19.528;2023-10-13T00:14:55;8.50;;;2.80;;
80637;SDS011;69991;51.760;19.528;2023-10-13T00:17:31;6.60;;;2.80;;
80637;SDS011;69991;51.760;19.528;2023-10-13T00:20:21;7.50;;;2.60;;
80637;SDS011;69991;51.760;19.528;2023-10-13T00:23:10;5.60;;;2.50;;
80637;SDS011;69991;51.760;19.528;2023-10-13T00:26:02;6.20;;;2.70;;
80637;SDS011;69991;51.760;19.528;2023-10-13T00:28:38;7.60;;;2.70;;
80637;SDS011;69991;51.760;19.528;2023-10-13T00:31:29;5.70;;;2.40;;
80637;SDS011;69991;51.760;19.528;2023-10-13T00:34:11;7.00;;;2.40;;
80637;SDS011;69991;51.760;19.528;2023-10-13T00:37:02;7.30;;;2.90;;
80637;SDS011;69991;51.760;19.528;2023-10-13T00:39:52;8.90;;;2.60;;
80637;SDS011;69991;51.760;19.528;2023-10-13T00:42:42;7.60;;;2.90;;
80637;SDS011;69991;51.760;19.528;2023-10-13T00:45:27;7.00;;;2.60;;
80637;SDS011;69991;51.760;19.528;2023-10-13T00:48:16;7.40;;;2.50;;
80637;SDS011;69991;51.760;19.528;2023-10-13T00:50:52;6.10;;;2.50;;
80637;SDS011;69991;51.760;19.528;2023-10-13T00:53:44;8.10;;;2.90;;
80637;SDS011;69991;51.760;19.528;2023-10-13T00:56:22;7.40;;;2.30;;
80637;SDS011;69991;51.760;19.528;2023-10-13T00:59:17;7.90;;;2.70;;
80637;SDS011;69991;51.760;19.528;2023-10-13T01:01:55;9.30;;;2.70;;
80637;SDS011;69991;51.760;19.528;2023-10-13T01:07:46;7.50;;;2.50;;
80637;SDS011;69991;51.760;19.528;2023-10-13T01:10:43;7.50;;;3.10;;
80637;SDS011;69991;51.760;19.528;2023-10-13T01:13:39;7.10;;;2.90;;
80637;SDS011;69991;51.760;19.528;2023-10-13T01:16:17;8.50;;;3.10;;
80637;SDS011;69991;51.760;19.528;2023-10-13T01:19:08;6.10;;;2.80;;
80637;SDS011;69991;51.760;19.528;2023-10-13T01:21:47;10.60;;;3.30;;
80637;SDS011;69991;51.760;19.528;2023-10-13T01:24:44;6.30;;;2.70;;
80637;SDS011;69991;51.760;19.528;2023-10-13T01:27:21;9.70;;;3.10;;
80637;SDS011;69991;51.760;19.528;2023-10-13T01:30:09;7.90;;;3.00;;
80637;SDS011;69991;51.760;19.528;2023-10-13T01:32:58;6.60;;;2.90;;
80637;SDS011;69991;51.760;19.528;2023-10-13T01:35:46;9.60;;;2.80;;
80637;SDS011;69991;51.760;19.528;2023-10-13T01:38:26;7.80;;;2.90;;
80637;SDS011;69991;51.760;19.528;2023-10-13T01:41:15;8.60;;;3.00;;
80637;SDS011;69991;51.760;19.528;2023-10-13T01:43:51;8.70;;;3.30;;
80637;SDS011;69991;51.760;19.528;2023-10-13T01:46:46;6.90;;;3.10;;
80637;SDS011;69991;51.760;19.528;2023-10-13T01:49:23;7.50;;;3.30;;
80637;SDS011;69991;51.760;19.528;2023-10-13T01:52:11;8.60;;;3.00;;
80637;SDS011;69991;51.760;19.528;2023-10-13T01:54:51;6.80;;;3.60;;
80637;SDS011;69991;51.760;19.528;2023-10-13T01:57:42;8.10;;;3.20;;
80637;SDS011;69991;51.760;19.528;2023-10-13T02:00:23;8.90;;;3.20;;
80637;SDS011;69991;51.760;19.528;2023-10-13T02:03:12;8.90;;;3.00;;
80637;SDS011;69991;51.760;19.528;2023-10-13T02:05:52;7.70;;;3.30;;
80637;SDS011;69991;51.760;19.528;2023-10-13T02:08:45;11.50;;;3.10;;
80637;SDS011;69991;51.760;19.528;2023-10-13T02:14:12;10.90;;;3.10;;
80637;SDS011;69991;51.760;19.528;2023-10-13T02:16:51;8.00;;;2.90;;
80637;SDS011;69991;51.760;19.528;2023-10-13T02:19:57;7.10;;;2.80;;
80637;SDS011;69991;51.760;19.528;2023-10-13T02:22:40;9.00;;;3.10;;
80637;SDS011;69991;51.760;19.528;2023-10-13T02:25:26;8.30;;;3.10;;
80637;SDS011;69991;51.760;19.528;2023-10-13T02:28:17;6.00;;;2.50;;
80637;SDS011;69991;51.760;19.528;2023-10-13T02:31:03;8.70;;;3.30;;
80637;SDS011;69991;51.760;19.528;2023-10-13T02:33:46;8.30;;;2.80;;
80637;SDS011;69991;51.760;19.528;2023-10-13T02:36:28;8.20;;;2.70;;
80637;SDS011;69991;51.760;19.528;2023-10-13T02:39:32;6.90;;;2.60;;
80637;SDS011;69991;51.760;19.528;2023-10-13T02:42:29;8.10;;;2.70;;
80637;SDS011;69991;51.760;19.528;2023-10-13T02:45:25;6.70;;;2.30;;
80637;SDS011;69991;51.760;19.528;2023-10-13T02:48:01;6.60;;;1.70;;
80637;SDS011;69991;51.760;19.528;2023-10-13T02:50:58;6.30;;;2.10;;
80637;SDS011;69991;51.760;19.528;2023-10-13T02:53:37;7.80;;;2.50;;
80637;SDS011;69991;51.760;19.528;2023-10-13T02:56:29;7.90;;;2.40;;
80637;SDS011;69991;51.760;19.528;2023-10-13T03:02:16;5.60;;;1.80;;
80637;SDS011;69991;51.760;19.528;2023-10-13T03:04:58;5.80;;;1.70;;
80637;SDS011;69991;51.760;19.528;2023-10-13T03:07:56;5.30;;;1.70;;
80637;SDS011;69991;51.760;19.528;2023-10-13T03:10:34;5.80;;;1.70;;
80637;SDS011;69991;51.760;19.528;2023-10-13T03:13:28;7.90;;;1.80;;
80637;SDS011;69991;51.760;19.528;2023-10-13T03:16:13;8.00;;;1.80;;
80637;SDS011;69991;51.760;19.528;2023-10-13T03:19:06;5.00;;;1.30;;
80637;SDS011;69991;51.760;19.528;2023-10-13T03:21:45;5.50;;;1.70;;
80637;SDS011;69991;51.760;19.528;2023-10-13T03:24:38;6.80;;;1.90;;
80637;SDS011;69991;51.760;19.528;2023-10-13T03:27:21;7.90;;;1.40;;
80637;SDS011;69991;51.760;19.528;2023-10-13T03:30:21;4.30;;;1.40;;
80637;SDS011;69991;51.760;19.528;2023-10-13T03:33:05;7.00;;;1.40;;
80637;SDS011;69991;51.760;19.528;2023-10-13T03:35:55;4.00;;;2.00;;
80637;SDS011;69991;51.760;19.528;2023-10-13T03:38:40;8.40;;;2.10;;
80637;SDS011;69991;51.760;19.528;2023-10-13T03:41:43;5.80;;;1.90;;
80637;SDS011;69991;51.760;19.528;2023-10-13T03:44:42;8.20;;;1.90;;
80637;SDS011;69991;51.760;19.528;2023-10-13T03:47:38;5.60;;;1.80;;
80637;SDS011;69991;51.760;19.528;2023-10-13T03:50:14;7.60;;;1.80;;
80637;SDS011;69991;51.760;19.528;2023-10-13T03:53:13;5.80;;;1.70;;
80637;SDS011;69991;51.760;19.528;2023-10-13T03:55:49;6.70;;;2.00;;
80637;SDS011;69991;51.760;19.528;2023-10-13T03:58:49;5.90;;;1.80;;
80637;SDS011;69991;51.760;19.528;2023-10-13T04:01:38;5.90;;;1.80;;
80637;SDS011;69991;51.760;19.528;2023-10-13T04:04:19;9.30;;;2.00;;
80637;SDS011;69991;51.760;19.528;2023-10-13T04:07:19;8.20;;;2.10;;
80637;SDS011;69991;51.760;19.528;2023-10-13T04:10:01;5.90;;;1.90;;
80637;SDS011;69991;51.760;19.528;2023-10-13T04:13:03;6.80;;;1.50;;
80637;SDS011;69991;51.760;19.528;2023-10-13T04:16:07;7.40;;;1.80;;
80637;SDS011;69991;51.760;19.528;2023-10-13T04:18:58;6.40;;;2.00;;
80637;SDS011;69991;51.760;19.528;2023-10-13T04:21:50;7.20;;;2.20;;
80637;SDS011;69991;51.760;19.528;2023-10-13T04:24:35;7.50;;;2.20;;
80637;SDS011;69991;51.760;19.528;2023-10-13T04:27:35;9.50;;;2.40;;
80637;SDS011;69991;51.760;19.528;2023-10-13T04:30:35;6.40;;;2.20;;
80637;SDS011;69991;51.760;19.528;2023-10-13T04:33:40;5.00;;;1.80;;
80637;SDS011;69991;51.760;19.528;2023-10-13T04:36:36;6.50;;;2.40;;
80637;SDS011;69991;51.760;19.528;2023-10-13T04:39:28;6.10;;;2.00;;
80637;SDS011;69991;51.760;19.528;2023-10-13T04:42:26;7.30;;;2.40;;
80637;SDS011;69991;51.760;19.528;2023-10-13T04:45:37;6.60;;;3.10;;
80637;SDS011;69991;51.760;19.528;2023-10-13T04:48:43;6.90;;;2.90;;
80637;SDS011;69991;51.760;19.528;2023-10-13T04:51:23;6.10;;;2.70;;
80637;SDS011;69991;51.760;19.528;2023-10-13T04:54:46;5.80;;;2.40;;
80637;SDS011;69991;51.760;19.528;2023-10-13T04:57:29;8.10;;;2.90;;
80637;SDS011;69991;51.760;19.528;2023-10-13T05:00:28;7.60;;;3.30;;
80637;SDS011;69991;51.760;19.528;2023-10-13T05:03:22;8.30;;;3.40;;
80637;SDS011;69991;51.760;19.528;2023-10-13T05:06:34;8.30;;;3.70;;
80637;SDS011;69991;51.760;19.528;2023-10-13T05:09:19;9.90;;;4.00;;
80637;SDS011;69991;51.760;19.528;2023-10-13T05:12:25;7.90;;;3.70;;
80637;SDS011;69991;51.760;19.528;2023-10-13T05:15:20;8.20;;;4.20;;
80637;SDS011;69991;51.760;19.528;2023-10-13T05:18:27;9.10;;;4.00;;
80637;SDS011;69991;51.760;19.528;2023-10-13T05:21:29;7.80;;;3.70;;
80637;SDS011;69991;51.760;19.528;2023-10-13T05:24:36;8.40;;;3.50;;
80637;SDS011;69991;51.760;19.528;2023-10-13T05:27:31;12.00;;;5.00;;
80637;SDS011;69991;51.760;19.528;2023-10-13T05:30:41;8.10;;;3.70;;
80637;SDS011;69991;51.760;19.528;2023-10-13T05:33:36;10.40;;;4.40;;
80637;SDS011;69991;51.760;19.528;2023-10-13T05:36:43;8.40;;;4.40;;
80637;SDS011;69991;51.760;19.528;2023-10-13T05:39:38;8.00;;;3.50;;
80637;SDS011;69991;51.760;19.528;2023-10-13T05:42:51;16.70;;;9.00;;
80637;SDS011;69991;51.760;19.528;2023-10-13T05:46:00;10.90;;;5.70;;
80637;SDS011;69991;51.760;19.528;2023-10-13T05:49:04;7.50;;;3.70;;
80637;SDS011;69991;51.760;19.528;2023-10-13T05:51:47;8.10;;;3.80;;
80637;SDS011;69991;51.760;19.528;2023-10-13T05:54:49;9.00;;;3.20;;
80637;SDS011;69991;51.760;19.528;2023-10-13T06:00:52;10.10;;;4.20;;
80637;SDS011;69991;51.760;19.528;2023-10-13T06:03:54;7.60;;;4.10;;
80637;SDS011;69991;51.760;19.528;2023-10-13T06:06:54;9.60;;;3.80;;
80637;SDS011;69991;51.760;19.528;2023-10-13T06:09:56;8.20;;;4.20;;
80637;SDS011;69991;51.760;19.528;2023-10-13T06:12:56;8.50;;;3.90;;
80637;SDS011;69991;51.760;19.528;2023-10-13T06:15:58;7.50;;;3.80;;
80637;SDS011;69991;51.760;19.528;2023-10-13T06:18:59;7.80;;;4.30;;
80637;SDS011;69991;51.760;19.528;2023-10-13T06:22:02;9.70;;;4.40;;
80637;SDS011;69991;51.760;19.528;2023-10-13T06:25:02;10.40;;;4.00;;
80637;SDS011;69991;51.760;19.528;2023-10-13T06:27:57;9.30;;;3.80;;
80637;SDS011;69991;51.760;19.528;2023-10-13T06:31:05;6.70;;;3.60;;
80637;SDS011;69991;51.760;19.528;2023-10-13T06:33:41;8.30;;;3.60;;
80637;SDS011;69991;51.760;19.528;2023-10-13T06:36:29;9.50;;;3.90;;
80637;SDS011;69991;51.760;19.528;2023-10-13T06:39:05;8.50;;;4.50;;
80637;SDS011;69991;51.760;19.528;2023-10-13T06:42:23;11.60;;;4.30;;
80637;SDS011;69991;51.760;19.528;2023-10-13T06:45:22;8.20;;;4.00;;
80637;SDS011;69991;51.760;19.528;2023-10-13T06:48:24;9.70;;;5.20;;
80637;SDS011;69991;51.760;19.528;2023-10-13T06:51:23;11.00;;;4.50;;
80637;SDS011;69991;51.760;19.528;2023-10-13T06:54:26;11.00;;;3.60;;
80637;SDS011;69991;51.760;19.528;2023-10-13T06:57:23;7.40;;;3.90;;
80637;SDS011;69991;51.760;19.528;2023-10-13T07:00:23;11.40;;;4.80;;
80637;SDS011;69991;51.760;19.528;2023-10-13T07:03:05;10.90;;;5.00;;
80637;SDS011;69991;51.760;19.528;2023-10-13T07:06:00;12.20;;;4.40;;
80637;SDS011;69991;51.760;19.528;2023-10-13T07:08:36;11.60;;;4.70;;
80637;SDS011;69991;51.760;19.528;2023-10-13T07:11:30;9.30;;;4.70;;
80637;SDS011;69991;51.760;19.528;2023-10-13T07:14:09;10.30;;;4.70;;
80637;SDS011;69991;51.760;19.528;2023-10-13T07:17:03;7.70;;;4.30;;
80637;SDS011;69991;51.760;19.528;2023-10-13T07:19:40;10.60;;;4.30;;
80637;SDS011;69991;51.760;19.528;2023-10-13T07:22:35;9.10;;;4.60;;
80637;SDS011;69991;51.760;19.528;2023-10-13T07:25:15;13.50;;;5.40;;
80637;SDS011;69991;51.760;19.528;2023-10-13T07:28:08;14.80;;;5.90;;
80637;SDS011;69991;51.760;19.528;2023-10-13T07:30:44;9.90;;;5.40;;
80637;SDS011;69991;51.760;19.528;2023-10-13T07:33:43;12.60;;;5.70;;
80637;SDS011;69991;51.760;19.528;2023-10-13T07:36:19;11.10;;;5.60;;
80637;SDS011;69991;51.760;19.528;2023-10-13T07:39:18;14.00;;;5.60;;
80637;SDS011;69991;51.760;19.528;2023-10-13T07:45:10;11.90;;;4.80;;
80637;SDS011;69991;51.760;19.528;2023-10-13T07:47:48;13.50;;;6.20;;
80637;SDS011;69991;51.760;19.528;2023-10-13T07:50:36;12.90;;;5.70;;
80637;SDS011;69991;51.760;19.528;2023-10-13T07:53:12;13.30;;;6.10;;
80637;SDS011;69991;51.760;19.528;2023-10-13T07:56:07;11.80;;;5.50;;
80637;SDS011;69991;51.760;19.528;2023-10-13T08:01:48;12.50;;;5.70;;
80637;SDS011;69991;51.760;19.528;2023-10-13T08:04:44;12.80;;;5.90;;
80637;SDS011;69991;51.760;19.528;2023-10-13T08:07:33;14.40;;;6.80;;
80637;SDS011;69991;51.760;19.528;2023-10-13T08:10:10;15.20;;;7.00;;
80637;SDS011;69991;51.760;19.528;2023-10-13T08:12:58;16.10;;;7.10;;
80637;SDS011;69991;51.760;19.528;2023-10-13T08:15:34;12.40;;;7.00;;
80637;SDS011;69991;51.760;19.528;2023-10-13T08:18:22;12.60;;;6.60;;
80637;SDS011;69991;51.760;19.528;2023-10-13T08:21:12;15.80;;;7.50;;
80637;SDS011;69991;51.760;19.528;2023-10-13T08:24:07;14.10;;;6.90;;
80637;SDS011;69991;51.760;19.528;2023-10-13T08:26:49;15.50;;;6.70;;
80637;SDS011;69991;51.760;19.528;2023-10-13T08:29:50;14.30;;;7.10;;
80637;SDS011;69991;51.760;19.528;2023-10-13T08:32:44;13.60;;;6.90;;
80637;SDS011;69991;51.760;19.528;2023-10-13T08:35:43;12.70;;;6.30;;
80637;SDS011;69991;51.760;19.528;2023-10-13T08:38:57;15.70;;;7.00;;
80637;SDS011;69991;51.760;19.528;2023-10-13T08:42:13;14.60;;;7.40;;
80637;SDS011;69991;51.760;19.528;2023-10-13T08:45:12;15.60;;;7.90;;
80637;SDS011;69991;51.760;19.528;2023-10-13T08:48:14;16.40;;;7.50;;
80637;SDS011;69991;51.760;19.528;2023-10-13T08:51:14;15.80;;;7.70;;
80637;SDS011;69991;51.760;19.528;2023-10-13T08:54:30;15.70;;;7.20;;
80637;SDS011;69991;51.760;19.528;2023-10-13T08:57:34;15.60;;;7.10;;
80637;SDS011;69991;51.760;19.528;2023-10-13T09:00:39;13.80;;;6.70;;
80637;SDS011;69991;51.760;19.528;2023-10-13T09:03:31;14.60;;;7.90;;
80637;SDS011;69991;51.760;19.528;2023-10-13T09:06:22;16.50;;;8.00;;
80637;SDS011;69991;51.760;19.528;2023-10-13T09:09:06;19.60;;;9.40;;
80637;SDS011;69991;51.760;19.528;2023-10-13T09:12:15;18.10;;;8.60;;
80637;SDS011;69991;51.760;19.528;2023-10-13T09:15:07;20.90;;;8.20;;
80637;SDS011;69991;51.760;19.528;2023-10-13T09:17:50;21.90;;;9.00;;
80637;SDS011;69991;51.760;19.528;2023-10-13T09:20:50;17.20;;;8.70;;
80637;SDS011;69991;51.760;19.528;2023-10-13T09:23:53;20.90;;;9.30;;
80637;SDS011;69991;51.760;19.528;2023-10-13T09:26:48;21.50;;;9.80;;
80637;SDS011;69991;51.760;19.528;2023-10-13T09:29:31;20.00;;;8.50;;
80637;SDS011;69991;51.760;19.528;2023-10-13T09:32:15;18.30;;;8.80;;
80637;SDS011;69991;51.760;19.528;2023-10-13T09:34:50;18.20;;;8.90;;
80637;SDS011;69991;51.760;19.528;2023-10-13T09:37:35;17.20;;;9.40;;
80637;SDS011;69991;51.760;19.528;2023-10-13T09:40:24;16.40;;;8.00;;
80637;SDS011;69991;51.760;19.528;2023-10-13T09:43:26;19.80;;;9.10;;
80637;SDS011;69991;51.760;19.528;2023-10-13T09:46:22;20.30;;;11.90;;
80637;SDS011;69991;51.760;19.528;2023-10-13T09:49:19;30.10;;;13.70;;
80637;SDS011;69991;51.760;19.528;2023-10-13T09:52:09;21.70;;;9.50;;
80637;SDS011;69991;51.760;19.528;2023-10-13T09:55:26;20.50;;;10.20;;
80637;SDS011;69991;51.760;19.528;2023-10-13T09:58:06;18.40;;;9.90;;
80637;SDS011;69991;51.760;19.528;2023-10-13T10:00:57;22.70;;;9.90;;
80637;SDS011;69991;51.760;19.528;2023-10-13T10:03:46;21.30;;;10.10;;
80637;SDS011;69991;51.760;19.528;2023-10-13T10:06:54;18.70;;;9.90;;
80637;SDS011;69991;51.760;19.528;2023-10-13T10:09:35;19.40;;;10.00;;
80637;SDS011;69991;51.760;19.528;2023-10-13T10:12:46;20.30;;;9.90;;
80637;SDS011;69991;51.760;19.528;2023-10-13T10:18:25;19.80;;;10.20;;
80637;SDS011;69991;51.760;19.528;2023-10-13T10:21:04;19.00;;;9.30;;
80637;SDS011;69991;51.760;19.528;2023-10-13T10:23:56;20.30;;;10.00;;
80637;SDS011;69991;51.760;19.528;2023-10-13T10:26:32;17.80;;;10.00;;
80637;SDS011;69991;51.760;19.528;2023-10-13T10:29:20;18.40;;;8.80;;
80637;SDS011;69991;51.760;19.528;2023-10-13T10:31:56;19.40;;;9.80;;
80637;SDS011;69991;51.760;19.528;2023-10-13T10:34:48;17.50;;;9.20;;
80637;SDS011;69991;51.760;19.528;2023-10-13T10:37:30;15.50;;;8.20;;
80637;SDS011;69991;51.760;19.528;2023-10-13T10:40:28;13.60;;;7.30;;
80637;SDS011;69991;51.760;19.528;2023-10-13T10:43:37;14.30;;;7.10;;
80637;SDS011;69991;51.760;19.528;2023-10-13T10:46:34;14.50;;;6.90;;
80637;SDS011;69991;51.760;19.528;2023-10-13T10:49:40;16.20;;;8.20;;
80637;SDS011;69991;51.760;19.528;2023-10-13T10:52:36;10.80;;;5.90;;
80637;SDS011;69991;51.760;19.528;2023-10-13T10:55:32;11.60;;;5.30;;
80637;SDS011;69991;51.760;19.528;2023-10-13T10:58:32;9.50;;;4.80;;
80637;SDS011;69991;51.760;19.528;2023-10-13T11:01:32;8.60;;;5.40;;
80637;SDS011;69991;51.760;19.528;2023-10-13T11:04:35;10.30;;;4.40;;
80637;SDS011;69991;51.760;19.528;2023-10-13T11:07:26;13.80;;;7.10;;
80637;SDS011;69991;51.760;19.528;2023-10-13T11:10:16;12.10;;;5.40;;
80637;SDS011;69991;51.760;19.528;2023-10-13T11:13:02;6.90;;;3.90;;
80637;SDS011;69991;51.760;19.528;2023-10-13T11:15:57;8.90;;;4.60;;
80637;SDS011;69991;51.760;19.528;2023-10-13T11:18:38;7.50;;;4.10;;
80637;SDS011;69991;51.760;19.528;2023-10-13T11:21:16;10.40;;;4.10;;
80637;SDS011;69991;51.760;19.528;2023-10-13T11:23:57;11.70;;;4.50;;
80637;SDS011;69991;51.760;19.528;2023-10-13T11:26:46;9.30;;;4.60;;
80637;SDS011;69991;51.760;19.528;2023-10-13T11:29:32;10.60;;;5.20;;
80637;SDS011;69991;51.760;19.528;2023-10-13T11:32:09;8.40;;;4.70;;
80637;SDS011;69991;51.760;19.528;2023-10-13T11:34:55;9.70;;;4.10;;
80637;SDS011;69991;51.760;19.528;2023-10-13T11:37:31;11.10;;;4.60;;
80637;SDS011;69991;51.760;19.528;2023-10-13T11:40:24;7.10;;;4.30;;
80637;SDS011;69991;51.760;19.528;2023-10-13T11:43:36;12.00;;;7.00;;
80637;SDS011;69991;51.760;19.528;2023-10-13T11:46:32;12.10;;;4.60;;
80637;SDS011;69991;51.760;19.528;2023-10-13T11:49:36;8.10;;;4.10;;
80637;SDS011;69991;51.760;19.528;2023-10-13T11:52:32;8.30;;;4.40;;
80637;SDS011;69991;51.760;19.528;2023-10-13T11:55:28;8.50;;;3.50;;
80637;SDS011;69991;51.760;19.528;2023-10-13T11:58:25;9.10;;;3.70;;
80637;SDS011;69991;51.760;19.528;2023-10-13T12:01:22;9.80;;;3.80;;
80637;SDS011;69991;51.760;19.528;2023-10-13T12:04:37;7.10;;;3.80;;
80637;SDS011;69991;51.760;19.528;2023-10-13T12:07:19;7.40;;;3.80;;
80637;SDS011;69991;51.760;19.528;2023-10-13T12:10:27;8.10;;;4.30;;
80637;SDS011;69991;51.760;19.528;2023-10-13T12:13:10;9.00;;;4.20;;
80637;SDS011;69991;51.760;19.528;2023-10-13T12:16:00;10.70;;;4.70;;
80637;SDS011;69991;51.760;19.528;2023-10-13T12:18:44;7.60;;;4.00;;
80637;SDS011;69991;51.760;19.528;2023-10-13T12:21:34;8.60;;;4.20;;
80637;SDS011;69991;51.760;19.528;2023-10-13T12:24:13;8.00;;;3.90;;
80637;SDS011;69991;51.760;19.528;2023-10-13T12:27:12;7.40;;;3.60;;
80637;SDS011;69991;51.760;19.528;2023-10-13T12:30:14;7.60;;;3.70;;
80637;SDS011;69991;51.760;19.528;2023-10-13T12:33:30;8.50;;;4.30;;
80637;SDS011;69991;51.760;19.528;2023-10-13T12:36:18;8.10;;;4.20;;
80637;SDS011;69991;51.760;19.528;2023-10-13T12:39:12;7.10;;;4.00;;
80637;SDS011;69991;51.760;19.528;2023-10-13T12:42:21;8.90;;;4.30;;
80637;SDS011;69991;51.760;19.528;2023-10-13T12:45:42;7.60;;;3.80;;
80637;SDS011;69991;51.760;19.528;2023-10-13T12:48:38;9.80;;;4.30;;
80637;SDS011;69991;51.760;19.528;2023-10-13T12:52:01;9.80;;;4.20;;
80637;SDS011;69991;51.760;19.528;2023-10-13T12:54:37;7.90;;;4.20;;
80637;SDS011;69991;51.760;19.528;2023-10-13T12:57:28;9.40;;;4.40;;
80637;SDS011;69991;51.760;19.528;2023-10-13T13:00:04;10.30;;;4.70;;
80637;SDS011;69991;51.760;19.528;2023-10-13T13:03:04;7.40;;;4.40;;
80637;SDS011;69991;51.760;19.528;2023-10-13T13:05:47;9.40;;;5.00;;
80637;SDS011;69991;51.760;19.528;2023-10-13T13:08:37;8.80;;;5.00;;
80637;SDS011;69991;51.760;19.528;2023-10-13T13:11:20;12.30;;;4.50;;
80637;SDS011;69991;51.760;19.528;2023-10-13T13:14:11;9.40;;;4.70;;
80637;SDS011;69991;51.760;19.528;2023-10-13T13:16:47;10.70;;;5.40;;
80637;SDS011;69991;51.760;19.528;2023-10-13T13:19:36;9.90;;;5.30;;
80637;SDS011;69991;51.760;19.528;2023-10-13T13:22:15;9.30;;;4.80;;
80637;SDS011;69991;51.760;19.528;2023-10-13T13:25:03;8.10;;;5.20;;
80637;SDS011;69991;51.760;19.528;2023-10-13T13:27:45;10.80;;;5.00;;
80637;SDS011;69991;51.760;19.528;2023-10-13T13:30:27;9.90;;;5.20;;
80637;SDS011;69991;51.760;19.528;2023-10-13T13:33:15;11.20;;;5.40;;
80637;SDS011;69991;51.760;19.528;2023-10-13T13:36:01;9.60;;;5.30;;
80637;SDS011;69991;51.760;19.528;2023-10-13T13:38:42;8.90;;;4.90;;
80637;SDS011;69991;51.760;19.528;2023-10-13T13:41:33;13.90;;;6.50;;
80637;SDS011;69991;51.760;19.528;2023-10-13T13:44:32;10.90;;;5.40;;
80637;SDS011;69991;51.760;19.528;2023-10-13T13:47:31;11.00;;;5.50;;
80637;SDS011;69991;51.760;19.528;2023-10-13T13:50:27;11.60;;;6.10;;
80637;SDS011;69991;51.760;19.528;2023-10-13T13:53:28;7.60;;;5.30;;
80637;SDS011;69991;51.760;19.528;2023-10-13T13:56:26;9.10;;;5.40;;
80637;SDS011;69991;51.760;19.528;2023-10-13T13:59:26;10.60;;;5.90;;
80637;SDS011;69991;51.760;19.528;2023-10-13T14:02:09;8.60;;;4.70;;
80637;SDS011;69991;51.760;19.528;2023-10-13T14:05:04;8.50;;;5.40;;
80637;SDS011;69991;51.760;19.528;2023-10-13T14:07:40;10.10;;;4.90;;
80637;SDS011;69991;51.760;19.528;2023-10-13T14:10:31;9.20;;;4.80;;
80637;SDS011;69991;51.760;19.528;2023-10-13T14:13:07;9.60;;;5.10;;
80637;SDS011;69991;51.760;19.528;2023-10-13T14:15:56;8.20;;;5.70;;
80637;SDS011;69991;51.760;19.528;2023-10-13T14:19:11;9.20;;;5.90;;
80637;SDS011;69991;51.760;19.528;2023-10-13T14:22:16;8.30;;;5.20;;
80637;SDS011;69991;51.760;19.528;2023-10-13T14:25:13;8.80;;;5.10;;
80637;SDS011;69991;51.760;19.528;2023-10-13T14:28:13;8.00;;;5.00;;
80637;SDS011;69991;51.760;19.528;2023-10-13T14:30:53;12.90;;;6.10;;
80637;SDS011;69991;51.760;19.528;2023-10-13T14:33:42;10.10;;;5.60;;
80637;SDS011;69991;51.760;19.528;2023-10-13T14:36:38;10.00;;;5.30;;
80637;SDS011;69991;51.760;19.528;2023-10-13T14:39:37;11.10;;;6.10;;
80637;SDS011;69991;51.760;19.528;2023-10-13T14:42:33;9.50;;;5.60;;
80637;SDS011;69991;51.760;19.528;2023-10-13T14:45:29;10.00;;;5.30;;
80637;SDS011;69991;51.760;19.528;2023-10-13T14:48:05;8.90;;;5.80;;
80637;SDS011;69991;51.760;19.528;2023-10-13T14:50:57;11.40;;;6.00;;
80637;SDS011;69991;51.760;19.528;2023-10-13T14:53:32;10.40;;;5.60;;
80637;SDS011;69991;51.760;19.528;2023-10-13T14:56:25;9.60;;;5.60;;
80637;SDS011;69991;51.760;19.528;2023-10-13T14:59:01;9.50;;;5.60;;
80637;SDS011;69991;51.760;19.528;2023-10-13T15:01:56;10.90;;;5.90;;
80637;SDS011;69991;51.760;19.528;2023-10-13T15:04:32;9.30;;;6.10;;
80637;SDS011;69991;51.760;19.528;2023-10-13T15:07:21;8.60;;;5.00;;
80637;SDS011;69991;51.760;19.528;2023-10-13T15:09:57;11.10;;;5.90;;
80637;SDS011;69991;51.760;19.528;2023-10-13T15:12:47;8.90;;;5.70;;
80637;SDS011;69991;51.760;19.528;2023-10-13T15:15:24;10.30;;;6.20;;
80637;SDS011;69991;51.760;19.528;2023-10-13T15:18:14;10.20;;;5.90;;
80637;SDS011;69991;51.760;19.528;2023-10-13T15:21:11;10.90;;;5.40;;
80637;SDS011;69991;51.760;19.528;2023-10-13T15:24:23;11.30;;;6.20;;
80637;SDS011;69991;51.760;19.528;2023-10-13T15:27:19;8.60;;;5.70;;
80637;SDS011;69991;51.760;19.528;2023-10-13T15:29:56;11.30;;;6.30;;
80637;SDS011;69991;51.760;19.528;2023-10-13T15:32:47;11.00;;;5.70;;
80637;SDS011;69991;51.760;19.528;2023-10-13T15:35:24;7.90;;;5.20;;
80637;SDS011;69991;51.760;19.528;2023-10-13T15:38:13;10.00;;;6.50;;
80637;SDS011;69991;51.760;19.528;2023-10-13T15:40:48;9.00;;;5.90;;
80637;SDS011;69991;51.760;19.528;2023-10-13T15:43:37;11.50;;;6.50;;
80637;SDS011;69991;51.760;19.528;2023-10-13T15:46:18;8.20;;;5.00;;
80637;SDS011;69991;51.760;19.528;2023-10-13T15:49:11;8.10;;;5.60;;
80637;SDS011;69991;51.760;19.528;2023-10-13T15:51:49;8.40;;;5.10;;
80637;SDS011;69991;51.760;19.528;2023-10-13T15:54:38;9.50;;;5.70;;
80637;SDS011;69991;51.760;19.528;2023-10-13T15:57:16;10.00;;;4.90;;
80637;SDS011;69991;51.760;19.528;2023-10-13T15:59:58;10.80;;;5.50;;
80637;SDS011;69991;51.760;19.528;2023-10-13T16:02:40;8.60;;;5.10;;
80637;SDS011;69991;51.760;19.528;2023-10-13T16:05:23;8.20;;;5.20;;
80637;SDS011;69991;51.760;19.528;2023-10-13T16:08:11;10.30;;;5.80;;
80637;SDS011;69991;51.760;19.528;2023-10-13T16:10:53;7.60;;;4.80;;
80637;SDS011;69991;51.760;19.528;2023-10-13T16:13:49;9.70;;;5.10;;
80637;SDS011;69991;51.760;19.528;2023-10-13T16:16:38;8.50;;;5.80;;
80637;SDS011;69991;51.760;19.528;2023-10-13T16:19:35;9.10;;;5.40;;
80637;SDS011;69991;51.760;19.528;2023-10-13T16:22:33;11.20;;;6.00;;
80637;SDS011;69991;51.760;19.528;2023-10-13T16:25:32;9.70;;;5.80;;
80637;SDS011;69991;51.760;19.528;2023-10-13T16:28:32;9.50;;;5.70;;
80637;SDS011;69991;51.760;19.528;2023-10-13T16:31:28;10.00;;;5.00;;
80637;SDS011;69991;51.760;19.528;2023-10-13T16:34:24;9.70;;;5.60;;
80637;SDS011;69991;51.760;19.528;2023-10-13T16:37:20;8.90;;;5.10;;
80637;SDS011;69991;51.760;19.528;2023-10-13T16:40:19;11.90;;;6.20;;
80637;SDS011;69991;51.760;19.528;2023-10-13T16:42:56;10.90;;;5.70;;
80637;SDS011;69991;51.760;19.528;2023-10-13T16:45:45;12.00;;;6.10;;
80637;SDS011;69991;51.760;19.528;2023-10-13T16:48:27;11.60;;;6.20;;
80637;SDS011;69991;51.760;19.528;2023-10-13T16:51:09;11.60;;;6.50;;
80637;SDS011;69991;51.760;19.528;2023-10-13T16:53:56;11.80;;;6.70;;
80637;SDS011;69991;51.760;19.528;2023-10-13T16:56:38;11.00;;;6.30;;
80637;SDS011;69991;51.760;19.528;2023-10-13T16:59:20;10.20;;;5.90;;
80637;SDS011;69991;51.760;19.528;2023-10-13T17:02:02;9.00;;;6.40;;
80637;SDS011;69991;51.760;19.528;2023-10-13T17:04:46;10.40;;;5.70;;
80637;SDS011;69991;51.760;19.528;2023-10-13T17:07:32;10.30;;;5.90;;
80637;SDS011;69991;51.760;19.528;2023-10-13T17:10:15;9.50;;;5.70;;
80637;SDS011;69991;51.760;19.528;2023-10-13T17:12:57;9.90;;;5.90;;